createdAt,value
2023-04-03T00:01:27.094Z,6.64
2023-04-03T00:03:56.643Z,6.72
2023-04-03T00:06:25.904Z,6.74
2023-04-03T00:08:55.535Z,6.83
2023-04-03T00:11:24.011Z,6.78
2023-04-03T00:13:52.124Z,6.81
2023-04-03T00:16:20.228Z,6.78
2023-04-03T00:18:48.726Z,6.70
2023-04-03T00:21:17.109Z,6.72
2023-04-03T00:23:45.326Z,6.69
2023-04-03T00:26:15.414Z,6.74
2023-04-03T00:28:44.029Z,6.81
2023-04-03T00:31:12.273Z,6.83
2023-04-03T00:33:40.887Z,6.84
2023-04-03T00:36:11.449Z,6.78
2023-04-03T00:38:40.064Z,6.71
2023-04-03T00:41:09.042Z,6.74
2023-04-03T00:43:38.712Z,6.67
2023-04-03T00:46:06.803Z,6.60
2023-04-03T00:48:41.097Z,6.50
2023-04-03T00:51:13.321Z,6.47
2023-04-03T00:53:48.115Z,6.48
2023-04-03T00:56:19.152Z,6.48
2023-04-03T00:58:54.590Z,6.46
2023-04-03T01:01:25.887Z,6.43
2023-04-03T01:03:54.773Z,6.40
2023-04-03T01:06:27.690Z,6.38
2023-04-03T01:08:57.054Z,6.30
2023-04-03T01:11:25.852Z,6.31
2023-04-03T01:13:55.885Z,6.25
2023-04-03T01:16:25.872Z,6.13
2023-04-03T01:18:54.092Z,6.09
2023-04-03T01:21:59.168Z,6.09
2023-04-03T01:24:36.291Z,5.94
2023-04-03T01:27:07.299Z,6.02
2023-04-03T01:29:37.861Z,5.99
2023-04-03T01:32:08.069Z,6.02
2023-04-03T01:34:36.574Z,5.98
2023-04-03T01:37:04.807Z,6.01
2023-04-03T01:39:32.812Z,5.96
2023-04-03T01:42:01.606Z,5.90
2023-04-03T01:44:30.522Z,5.87
2023-04-03T01:46:58.794Z,5.84
2023-04-03T01:49:29.235Z,5.87
2023-04-03T01:51:57.618Z,5.80
2023-04-03T01:54:25.800Z,5.81
2023-04-03T01:56:54.485Z,5.68
2023-04-03T01:59:22.801Z,5.78
2023-04-03T02:01:51.080Z,5.69
2023-04-03T02:04:19.421Z,5.63
2023-04-03T02:06:51.214Z,5.70
2023-04-03T02:09:19.603Z,5.69
2023-04-03T02:11:47.603Z,5.68
2023-04-03T02:14:15.701Z,5.63
2023-04-03T02:16:44.029Z,5.56
2023-04-03T02:19:12.572Z,5.45
2023-04-03T02:21:40.858Z,5.46
2023-04-03T02:24:10.295Z,5.52
2023-04-03T02:26:38.892Z,5.39
2023-04-03T02:29:07.047Z,5.49
2023-04-03T02:31:36.862Z,5.30
2023-04-03T02:34:06.580Z,5.47
2023-04-03T02:36:36.080Z,5.41
2023-04-03T02:39:05.369Z,5.39
2023-04-03T02:41:36.426Z,5.36
2023-04-03T02:44:07.509Z,5.28
2023-04-03T02:46:35.726Z,5.26
2023-04-03T02:49:04.191Z,5.24
2023-04-03T02:51:32.619Z,5.20
2023-04-03T02:54:00.866Z,5.13
2023-04-03T02:56:29.378Z,4.95
2023-04-03T02:58:59.424Z,5.08
2023-04-03T03:01:32.470Z,5.13
2023-04-03T03:04:01.533Z,5.15
2023-04-03T03:06:29.992Z,5.16
2023-04-03T03:08:57.997Z,5.09
2023-04-03T03:11:26.471Z,5.14
2023-04-03T03:13:54.717Z,5.08
2023-04-03T03:16:24.296Z,5.11
2023-04-03T03:18:52.526Z,5.05
2023-04-03T03:21:20.460Z,5.08
2023-04-03T03:23:48.529Z,5.10
2023-04-03T03:26:17.053Z,5.07
2023-04-03T03:28:45.029Z,5.09
2023-04-03T03:31:13.387Z,5.05
2023-04-03T03:33:43.476Z,5.02
2023-04-03T03:36:13.048Z,5.02
2023-04-03T03:38:41.450Z,5.05
2023-04-03T03:41:11.150Z,5.01
2023-04-03T03:43:40.259Z,5.02
2023-04-03T03:46:08.685Z,4.96
2023-04-03T03:48:36.744Z,4.93
2023-04-03T03:51:06.244Z,4.89
2023-04-03T03:53:34.941Z,4.90
2023-04-03T03:56:03.745Z,4.89
2023-04-03T03:58:32.172Z,4.86
2023-04-03T04:01:03.053Z,4.80
2023-04-03T04:03:31.939Z,4.75
2023-04-03T04:06:00.291Z,4.66
2023-04-03T04:08:30.017Z,4.67
2023-04-03T04:10:58.433Z,4.66
2023-04-03T04:13:26.530Z,4.57
2023-04-03T04:15:54.660Z,4.60
2023-04-03T04:18:23.597Z,4.56
2023-04-03T04:20:51.767Z,4.54
2023-04-03T04:23:20.807Z,4.55
2023-04-03T04:25:51.621Z,4.47
2023-04-03T04:28:20.464Z,4.48
2023-04-03T04:30:49.422Z,4.45
2023-04-03T04:33:18.100Z,4.32
2023-04-03T04:35:46.491Z,4.39
2023-04-03T04:38:15.090Z,4.32
2023-04-03T04:40:43.196Z,4.29
2023-04-03T04:43:15.414Z,4.26
2023-04-03T04:45:44.396Z,4.26
2023-04-03T04:48:13.382Z,4.33
2023-04-03T04:50:41.587Z,4.26
2023-04-03T04:53:10.150Z,4.39
2023-04-03T04:55:38.690Z,4.38
2023-04-03T04:58:07.139Z,4.33
2023-04-03T05:00:38.310Z,4.48
2023-04-03T05:03:07.009Z,4.42
2023-04-03T05:05:36.759Z,4.49
2023-04-03T05:08:05.915Z,4.45
2023-04-03T05:10:34.407Z,4.44
2023-04-03T05:13:03.565Z,4.41
2023-04-03T05:15:31.860Z,4.38
2023-04-03T05:18:01.734Z,4.39
2023-04-03T05:20:30.343Z,4.42
2023-04-03T05:22:59.462Z,4.36
2023-04-03T05:25:27.865Z,4.63
2023-04-03T05:27:56.840Z,4.67
2023-04-03T05:30:25.645Z,4.67
2023-04-03T05:32:54.692Z,4.61
2023-04-03T05:35:25.384Z,4.75
2023-04-03T05:37:54.011Z,4.81
2023-04-03T05:40:23.192Z,4.89
2023-04-03T05:42:52.648Z,4.97
2023-04-03T05:45:21.821Z,5.00
2023-04-03T05:47:50.624Z,4.90
2023-04-03T05:50:19.405Z,5.06
2023-04-03T05:52:54.680Z,5.16
2023-04-03T05:55:23.182Z,5.20
2023-04-03T05:57:52.086Z,5.31
2023-04-03T06:00:22.209Z,5.35
2023-04-03T06:02:51.769Z,5.35
2023-04-03T06:05:20.686Z,5.46
2023-04-03T06:07:50.581Z,5.53
2023-04-03T06:10:21.204Z,5.64
2023-04-03T06:12:49.469Z,5.74
2023-04-03T06:15:18.424Z,5.80
2023-04-03T06:17:47.363Z,5.82
2023-04-03T06:20:15.598Z,5.91
2023-04-03T06:22:43.840Z,6.01
2023-04-03T06:25:13.427Z,6.15
2023-04-03T06:27:42.792Z,6.15
2023-04-03T06:30:12.013Z,6.20
2023-04-03T06:32:40.392Z,6.24
2023-04-03T06:35:09.601Z,6.34
2023-04-03T06:37:37.944Z,6.37
2023-04-03T06:40:08.008Z,6.32
2023-04-03T06:42:36.548Z,6.49
2023-04-03T06:45:10.419Z,6.70
2023-04-03T06:47:38.737Z,6.75
2023-04-03T06:50:08.333Z,6.86
2023-04-03T06:52:36.827Z,6.89
2023-04-03T06:55:05.878Z,6.89
2023-04-03T06:57:34.069Z,7.12
2023-04-03T07:00:02.085Z,7.36
2023-04-03T07:02:31.863Z,7.39
2023-04-03T07:04:59.964Z,7.36
2023-04-03T07:07:28.111Z,7.33
2023-04-03T07:09:56.594Z,7.66
2023-04-03T07:12:24.774Z,7.78
2023-04-03T07:14:52.957Z,7.86
2023-04-03T07:17:21.449Z,7.90
2023-04-03T07:19:51.053Z,7.86
2023-04-03T07:22:19.658Z,7.97
2023-04-03T07:24:48.141Z,8.46
2023-04-03T07:27:16.634Z,8.67
2023-04-03T07:29:45.160Z,8.73
2023-04-03T07:32:13.510Z,8.61
2023-04-03T07:34:41.595Z,8.91
2023-04-03T07:37:11.529Z,8.86
2023-04-03T07:39:39.771Z,9.02
2023-04-03T07:42:08.337Z,8.88
2023-04-03T07:44:36.514Z,9.06
2023-04-03T07:47:05.022Z,9.16
2023-04-03T07:49:34.042Z,9.42
2023-04-03T07:52:02.200Z,9.09
2023-04-03T07:54:32.029Z,9.30
2023-04-03T07:57:00.412Z,9.35
2023-04-03T07:59:28.394Z,9.26
2023-04-03T08:01:57.091Z,9.50
2023-04-03T08:04:26.176Z,9.44
2023-04-03T08:06:54.385Z,8.74
2023-04-03T08:09:22.401Z,8.70
2023-04-03T08:11:54.174Z,8.80
2023-04-03T08:14:22.417Z,8.66
2023-04-03T08:16:50.891Z,9.11
2023-04-03T08:19:26.263Z,9.12
2023-04-03T08:21:56.157Z,9.05
2023-04-03T08:24:24.448Z,9.31
2023-04-03T08:26:53.995Z,9.55
2023-04-03T08:29:22.923Z,9.74
2023-04-03T08:31:51.731Z,10.02
2023-04-03T08:34:20.663Z,9.30
2023-04-03T08:36:49.298Z,9.39
2023-04-03T08:39:17.377Z,9.36
2023-04-03T08:41:48.969Z,9.04
2023-04-03T08:44:27.724Z,9.34
2023-04-03T08:47:10.419Z,9.39
2023-04-03T08:49:48.224Z,9.35
2023-04-03T08:52:20.597Z,9.94
2023-04-03T08:54:55.950Z,10.38
2023-04-03T08:57:31.539Z,9.99
2023-04-03T09:00:05.619Z,10.62
2023-04-03T09:02:36.874Z,10.75
2023-04-03T09:05:14.857Z,10.64
2023-04-03T09:07:49.346Z,10.38
2023-04-03T09:10:29.266Z,10.48
2023-04-03T09:13:03.446Z,10.35
2023-04-03T09:15:39.233Z,10.63
2023-04-03T09:18:17.644Z,11.05
2023-04-03T09:20:53.373Z,10.99
2023-04-03T09:23:27.577Z,11.41
2023-04-03T09:26:04.774Z,11.24
2023-04-03T09:28:43.123Z,11.20
2023-04-03T09:31:26.270Z,10.75
2023-04-03T09:33:58.701Z,10.62
2023-04-03T09:36:41.607Z,10.72
2023-04-03T09:39:15.547Z,11.32
2023-04-03T09:41:44.727Z,11.77
2023-04-03T09:44:32.344Z,11.98
2023-04-03T09:47:21.046Z,12.26
2023-04-03T09:49:49.193Z,12.39
2023-04-03T09:52:22.578Z,12.84
2023-04-03T09:54:51.338Z,12.91
2023-04-03T09:57:20.203Z,12.83
2023-04-03T09:59:58.971Z,13.15
2023-04-03T10:02:40.777Z,12.68
2023-04-03T10:05:42.031Z,12.45
2023-04-03T10:08:21.541Z,12.36
2023-04-03T10:11:07.117Z,13.10
2023-04-03T10:13:45.175Z,13.14
2023-04-03T10:16:23.346Z,12.95
2023-04-03T10:19:04.107Z,12.75
2023-04-03T10:21:43.781Z,12.30
2023-04-03T10:24:15.907Z,11.83
2023-04-03T10:26:54.701Z,11.47
2023-04-03T10:29:34.066Z,11.88
2023-04-03T10:32:17.725Z,12.56
2023-04-03T10:35:02.321Z,12.44
2023-04-03T10:37:54.142Z,12.99
2023-04-03T10:40:32.248Z,12.72
2023-04-03T10:43:08.627Z,11.97
2023-04-03T10:46:03.457Z,12.05
2023-04-03T10:48:46.964Z,11.81
2023-04-03T10:51:25.888Z,12.10
2023-04-03T10:53:59.887Z,12.32
2023-04-03T10:56:34.312Z,12.64
2023-04-03T10:59:15.204Z,13.15
2023-04-03T11:01:46.283Z,13.65
2023-04-03T11:04:18.137Z,14.34
2023-04-03T11:06:52.275Z,13.95
2023-04-03T11:09:26.509Z,14.66
2023-04-03T11:12:00.151Z,14.65
2023-04-03T11:14:31.193Z,14.56
2023-04-03T11:17:23.962Z,14.42
2023-04-03T11:20:01.494Z,13.99
2023-04-03T11:22:34.195Z,13.44
2023-04-03T11:25:08.387Z,13.56
2023-04-03T11:27:43.880Z,13.49
2023-04-03T11:30:20.703Z,14.05
2023-04-03T11:33:05.784Z,14.41
2023-04-03T11:35:36.386Z,14.58
2023-04-03T11:38:08.259Z,14.75
2023-04-03T11:40:39.919Z,14.22
2023-04-03T11:43:23.396Z,13.60
2023-04-03T11:45:56.592Z,13.36
2023-04-03T11:48:51.050Z,13.44
2023-04-03T11:51:43.731Z,14.24
2023-04-03T11:54:45.657Z,14.72
2023-04-03T11:57:47.321Z,15.02
2023-04-03T12:00:55.079Z,15.08
2023-04-03T12:03:54.033Z,14.21
2023-04-03T12:07:05.252Z,13.78
2023-04-03T12:09:37.050Z,13.16
2023-04-03T12:12:37.715Z,13.46
2023-04-03T12:15:48.265Z,13.94
2023-04-03T12:18:53.091Z,14.05
2023-04-03T12:21:25.049Z,13.72
2023-04-03T12:24:05.270Z,13.38
2023-04-03T12:26:48.017Z,12.78
2023-04-03T12:29:22.877Z,12.64
2023-04-03T12:32:14.703Z,13.03
2023-04-03T12:34:57.928Z,13.72
2023-04-03T12:37:42.591Z,14.61
2023-04-03T12:40:19.564Z,14.90
2023-04-03T12:43:05.380Z,14.49
2023-04-03T12:45:43.722Z,13.57
2023-04-03T12:48:18.424Z,13.25
2023-04-03T12:50:48.628Z,13.37
2023-04-03T12:53:21.391Z,13.23
2023-04-03T12:55:49.556Z,12.94
2023-04-03T12:58:22.964Z,12.98
2023-04-03T13:01:02.945Z,12.71
2023-04-03T13:03:31.989Z,12.62
2023-04-03T13:06:02.887Z,13.35
2023-04-03T13:08:33.447Z,13.94
2023-04-03T13:11:05.978Z,14.24
2023-04-03T13:13:34.260Z,14.19
2023-04-03T13:16:11.389Z,14.12
2023-04-03T13:18:40.882Z,13.87
2023-04-03T13:21:17.437Z,14.34
2023-04-03T13:23:55.230Z,14.80
2023-04-03T13:26:30.256Z,14.77
2023-04-03T13:29:01.709Z,14.65
2023-04-03T13:31:33.689Z,14.26
2023-04-03T13:34:06.824Z,13.92
2023-04-03T13:36:36.974Z,13.46
2023-04-03T13:39:09.458Z,13.56
2023-04-03T13:41:39.795Z,13.82
2023-04-03T13:44:20.667Z,13.85
2023-04-03T13:46:49.664Z,13.60
2023-04-03T13:49:23.680Z,13.56
2023-04-03T13:52:04.425Z,13.51
2023-04-03T13:54:39.232Z,13.33
2023-04-03T13:57:15.634Z,13.08
2023-04-03T13:59:45.514Z,12.74
2023-04-03T14:02:19.270Z,12.81
2023-04-03T14:04:54.224Z,13.00
2023-04-03T14:07:22.486Z,13.01
2023-04-03T14:09:52.926Z,12.94
2023-04-03T14:12:31.743Z,12.84
2023-04-03T14:15:06.576Z,12.87
2023-04-03T14:17:34.758Z,12.69
2023-04-03T14:20:03.385Z,12.79
2023-04-03T14:22:34.618Z,13.31
2023-04-03T14:25:05.109Z,13.27
2023-04-03T14:27:37.223Z,13.06
2023-04-03T14:30:09.870Z,12.72
2023-04-03T14:32:38.168Z,13.10
2023-04-03T14:35:07.718Z,13.23
2023-04-03T14:37:36.436Z,13.20
2023-04-03T14:40:08.400Z,13.03
2023-04-03T14:42:39.023Z,12.44
2023-04-03T14:45:09.992Z,12.55
2023-04-03T14:47:44.587Z,12.28
2023-04-03T14:50:16.796Z,12.21
2023-04-03T14:52:46.397Z,11.92
2023-04-03T14:55:18.047Z,12.12
2023-04-03T14:57:47.547Z,12.04
2023-04-03T15:00:18.754Z,11.76
2023-04-03T15:02:48.893Z,12.03
2023-04-03T15:05:18.285Z,12.15
2023-04-03T15:07:51.143Z,12.24
2023-04-03T15:10:25.913Z,11.99
2023-04-03T15:12:55.041Z,12.09
2023-04-03T15:15:25.204Z,11.76
2023-04-03T15:17:56.205Z,11.79
2023-04-03T15:20:26.439Z,11.95
2023-04-03T15:22:54.859Z,11.78
2023-04-03T15:25:24.749Z,11.85
2023-04-03T15:27:53.339Z,11.64
2023-04-03T15:30:22.577Z,11.48
2023-04-03T15:32:51.805Z,11.57
2023-04-03T15:35:21.102Z,11.40
2023-04-03T15:37:49.959Z,11.35
2023-04-03T15:40:18.349Z,11.36
2023-04-03T15:42:48.594Z,11.40
2023-04-03T15:45:16.877Z,11.52
2023-04-03T15:47:54.862Z,11.23
2023-04-03T15:50:24.900Z,11.48
2023-04-03T15:52:55.436Z,11.55
2023-04-03T15:55:24.382Z,11.59
2023-04-03T15:57:54.244Z,11.62
2023-04-03T16:00:23.188Z,11.73
2023-04-03T16:02:54.525Z,11.76
2023-04-03T16:05:23.145Z,11.72
2023-04-03T16:07:52.146Z,11.60
2023-04-03T16:10:21.773Z,11.73
2023-04-03T16:12:49.977Z,11.63
2023-04-03T16:15:19.999Z,11.51
2023-04-03T16:17:49.073Z,11.45
2023-04-03T16:20:17.840Z,11.29
2023-04-03T16:22:46.589Z,11.24
2023-04-03T16:25:14.837Z,11.29
2023-04-03T16:27:43.077Z,11.31
2023-04-03T16:30:12.412Z,11.26
2023-04-03T16:32:42.614Z,11.10
2023-04-03T16:35:12.553Z,10.80
2023-04-03T16:37:43.006Z,10.85
2023-04-03T16:40:13.127Z,10.89
2023-04-03T16:42:42.458Z,10.84
2023-04-03T16:45:11.424Z,10.78
2023-04-03T16:47:39.742Z,10.85
2023-04-03T16:50:10.822Z,10.77
2023-04-03T16:52:39.161Z,10.76
2023-04-03T16:55:08.197Z,10.66
2023-04-03T16:57:36.390Z,10.58
2023-04-03T17:00:05.529Z,10.54
2023-04-03T17:02:36.223Z,10.50
2023-04-03T17:05:05.390Z,10.51
2023-04-03T17:07:35.464Z,10.36
2023-04-03T17:10:03.629Z,10.40
2023-04-03T17:12:31.930Z,10.40
2023-04-03T17:15:00.636Z,10.38
2023-04-03T17:17:28.947Z,10.32
2023-04-03T17:19:57.921Z,10.22
2023-04-03T17:22:26.481Z,10.17
2023-04-03T17:24:55.998Z,10.13
2023-04-03T17:27:24.304Z,10.09
2023-04-03T17:29:52.846Z,9.99
2023-04-03T17:32:21.051Z,9.90
2023-04-03T17:34:49.174Z,9.97
2023-04-03T17:37:17.568Z,9.95
2023-04-03T17:39:47.009Z,9.97
2023-04-03T17:42:17.030Z,9.96
2023-04-03T17:44:45.608Z,9.94
2023-04-03T17:47:14.846Z,9.83
2023-04-03T17:49:51.599Z,9.86
2023-04-03T17:52:20.194Z,9.84
2023-04-03T17:54:49.742Z,9.87
2023-04-03T17:57:20.459Z,9.82
2023-04-03T17:59:49.035Z,9.84
2023-04-03T18:02:17.518Z,9.93
2023-04-03T18:04:46.146Z,9.98
2023-04-03T18:07:14.319Z,10.00
2023-04-03T18:09:42.905Z,9.95
2023-04-03T18:12:11.653Z,9.96
2023-04-03T18:14:42.159Z,10.00
2023-04-03T18:17:11.007Z,9.80
2023-04-03T18:19:39.221Z,9.77
2023-04-03T18:22:11.143Z,9.89
2023-04-03T18:24:40.012Z,9.76
2023-04-03T18:27:12.801Z,9.61
2023-04-03T18:29:46.009Z,9.63
2023-04-03T18:32:16.249Z,9.51
2023-04-03T18:34:45.039Z,9.64
2023-04-03T18:37:13.619Z,9.34
2023-04-03T18:39:41.802Z,9.53
2023-04-03T18:42:13.257Z,9.52
2023-04-03T18:44:44.219Z,9.48
2023-04-03T18:47:13.229Z,9.54
2023-04-03T18:49:42.744Z,9.64
2023-04-03T18:52:11.957Z,9.59
2023-04-03T18:54:40.988Z,9.61
2023-04-03T18:57:09.509Z,9.53
2023-04-03T18:59:37.911Z,9.48
2023-04-03T19:02:09.123Z,9.42
2023-04-03T19:04:37.730Z,9.30
2023-04-03T19:07:06.637Z,9.44
2023-04-03T19:09:38.730Z,9.50
2023-04-03T19:12:07.850Z,9.25
2023-04-03T19:14:36.363Z,9.33
2023-04-03T19:17:07.402Z,9.28
2023-04-03T19:19:37.385Z,9.24
2023-04-03T19:22:06.980Z,9.24
2023-04-03T19:24:35.852Z,9.28
2023-04-03T19:27:04.282Z,9.27
2023-04-03T19:29:32.432Z,9.33
2023-04-03T19:32:01.816Z,9.42
2023-04-03T19:34:29.884Z,9.41
2023-04-03T19:36:59.456Z,9.40
2023-04-03T19:39:29.928Z,9.47
2023-04-03T19:41:58.095Z,9.42
2023-04-03T19:44:26.711Z,9.35
2023-04-03T19:46:55.510Z,9.42
2023-04-03T19:49:24.276Z,9.43
2023-04-03T19:51:53.492Z,9.47
2023-04-03T19:54:24.535Z,9.51
2023-04-03T19:56:52.756Z,9.53
2023-04-03T19:59:20.841Z,9.50
2023-04-03T20:01:49.546Z,9.49
2023-04-03T20:04:17.977Z,9.46
2023-04-03T20:06:46.135Z,9.43
2023-04-03T20:09:14.216Z,9.49
2023-04-03T20:11:47.200Z,9.45
2023-04-03T20:14:16.690Z,9.43
2023-04-03T20:16:47.246Z,9.38
2023-04-03T20:19:15.626Z,9.17
2023-04-03T20:21:43.914Z,9.40
2023-04-03T20:24:14.429Z,9.29
2023-04-03T20:26:47.338Z,9.35
2023-04-03T20:29:16.805Z,9.38
2023-04-03T20:31:45.382Z,9.28
2023-04-03T20:34:14.747Z,9.34
2023-04-03T20:36:49.120Z,9.37
2023-04-03T20:39:19.500Z,9.35
2023-04-03T20:41:49.738Z,9.32
2023-04-03T20:44:19.891Z,9.30
2023-04-03T20:46:53.372Z,9.31
2023-04-03T20:49:23.049Z,9.33
2023-04-03T20:51:52.311Z,9.32
2023-04-03T20:54:20.644Z,9.16
2023-04-03T20:56:50.676Z,9.14
2023-04-03T20:59:20.707Z,9.09
2023-04-03T21:01:50.054Z,9.19
2023-04-03T21:04:26.587Z,9.24
2023-04-03T21:07:32.736Z,9.29
2023-04-03T21:10:38.972Z,9.31
2023-04-03T21:13:44.817Z,9.23
2023-04-03T21:16:13.379Z,9.26
2023-04-03T21:18:59.549Z,9.18
2023-04-03T21:21:28.789Z,9.13
2023-04-03T21:23:57.545Z,9.00
2023-04-03T21:26:27.669Z,8.98
2023-04-03T21:28:56.576Z,9.00
2023-04-03T21:31:25.797Z,9.05
2023-04-03T21:33:55.709Z,9.04
2023-04-03T21:36:24.393Z,8.96
2023-04-03T21:38:59.332Z,8.99
2023-04-03T21:41:28.002Z,8.98
2023-04-03T21:43:57.135Z,8.97
2023-04-03T21:46:25.734Z,8.99
2023-04-03T21:48:56.269Z,8.91
2023-04-03T21:51:24.853Z,8.96
2023-04-03T21:53:53.352Z,8.98
2023-04-03T21:56:22.396Z,9.01
2023-04-03T21:58:51.026Z,8.98
2023-04-03T22:01:20.226Z,8.98
2023-04-03T22:03:48.987Z,8.97
2023-04-03T22:06:18.804Z,8.95
2023-04-03T22:08:47.007Z,8.87
2023-04-03T22:11:16.703Z,8.90
2023-04-03T22:13:45.759Z,8.93
2023-04-03T22:16:15.060Z,8.85
2023-04-03T22:18:43.620Z,8.85
2023-04-03T22:21:11.762Z,8.85
2023-04-03T22:23:41.302Z,8.89
2023-04-03T22:26:12.263Z,8.80
2023-04-03T22:28:42.311Z,8.81
2023-04-03T22:31:11.919Z,8.81
2023-04-03T22:33:41.154Z,8.80
2023-04-03T22:36:10.988Z,8.80
2023-04-03T22:38:43.042Z,8.80
2023-04-03T22:41:11.841Z,8.82
2023-04-03T22:43:41.036Z,8.80
2023-04-03T22:46:10.450Z,8.77
2023-04-03T22:48:42.859Z,8.72
2023-04-03T22:51:14.204Z,8.68
2023-04-03T22:53:45.269Z,8.71
2023-04-03T22:56:14.661Z,8.66
2023-04-03T22:58:45.264Z,8.73
2023-04-03T23:01:16.713Z,8.78
2023-04-03T23:03:46.574Z,8.69
2023-04-03T23:06:15.826Z,8.70
2023-04-03T23:08:45.252Z,8.61
2023-04-03T23:11:13.309Z,8.51
2023-04-03T23:13:43.598Z,8.52
2023-04-03T23:16:14.029Z,8.50
2023-04-03T23:18:43.881Z,8.55
2023-04-03T23:21:12.082Z,8.57
2023-04-03T23:23:40.362Z,8.55
2023-04-03T23:26:11.038Z,8.58
2023-04-03T23:28:39.297Z,8.61
2023-04-03T23:31:08.205Z,8.60
2023-04-03T23:33:39.556Z,8.59
2023-04-03T23:36:09.124Z,8.53
2023-04-03T23:38:38.202Z,8.48
2023-04-03T23:41:06.616Z,8.38
2023-04-03T23:43:37.186Z,8.46
2023-04-03T23:46:05.604Z,8.37
2023-04-03T23:48:33.924Z,8.32
2023-04-03T23:51:02.079Z,8.27
2023-04-03T23:53:30.474Z,8.39
2023-04-03T23:55:58.770Z,8.49
2023-04-03T23:58:27.149Z,8.52
